臺北終端管制區 - 桃園掃描雷達席

METAR RCTP 130830Z 35007KT 320V020 9999 FEW015 BKN050 BKN080 32/27 Q1011 NOSIG RMK A2986=

站台狀態:Online
最後更新:2020-08-13 16:30:02